createdAt,value
2023-03-03T00:02:07.193Z,84.66
2023-03-03T00:04:37.036Z,84.42
2023-03-03T00:07:06.998Z,84.46
2023-03-03T00:09:36.847Z,84.46
2023-03-03T00:12:16.629Z,84.77
2023-03-03T00:14:46.269Z,84.36
2023-03-03T00:17:19.114Z,84.28
2023-03-03T00:19:52.348Z,83.31
2023-03-03T00:22:33.973Z,84.14
2023-03-03T00:25:09.481Z,85.07
2023-03-03T00:27:39.254Z,85.07
2023-03-03T00:30:20.152Z,84.43
2023-03-03T00:32:51.712Z,84.71
2023-03-03T00:35:38.444Z,84.72
2023-03-03T00:38:15.292Z,85.43
2023-03-03T00:40:46.093Z,85.27
2023-03-03T00:43:28.921Z,85.15
2023-03-03T00:45:59.421Z,85.15
2023-03-03T00:48:34.888Z,85.24
2023-03-03T00:51:13.047Z,85.38
2023-03-03T00:53:42.906Z,85.38
2023-03-03T00:56:12.657Z,84.86
2023-03-03T00:58:44.159Z,85.05
2023-03-03T01:01:15.263Z,84.47
2023-03-03T01:03:46.800Z,85.51
2023-03-03T01:06:17.788Z,85.51
2023-03-03T01:08:47.550Z,85.74
2023-03-03T01:11:20.363Z,85.34
2023-03-03T01:13:53.036Z,85.02
2023-03-03T01:16:22.934Z,84.89
2023-03-03T01:18:53.043Z,85.35
2023-03-03T01:21:23.474Z,84.49
2023-03-03T01:23:53.372Z,84.65
2023-03-03T01:26:23.141Z,84.88
2023-03-03T01:28:53.461Z,84.88
2023-03-03T01:31:23.445Z,84.17
2023-03-03T01:33:53.541Z,85.04
2023-03-03T01:36:30.283Z,85.00
2023-03-03T01:39:00.487Z,85.47
2023-03-03T01:41:33.462Z,85.33
2023-03-03T01:44:03.710Z,85.46
2023-03-03T01:46:54.580Z,85.32
2023-03-03T01:49:36.373Z,85.77
2023-03-03T01:52:27.900Z,85.48
2023-03-03T01:55:00.809Z,84.67
2023-03-03T01:57:36.228Z,84.30
2023-03-03T02:00:09.414Z,83.96
2023-03-03T02:02:46.148Z,83.69
2023-03-03T02:05:17.313Z,83.69
2023-03-03T02:07:47.700Z,84.15
2023-03-03T02:10:19.944Z,83.41
2023-03-03T02:12:57.089Z,83.63
2023-03-03T02:15:32.288Z,82.78
2023-03-03T02:18:04.896Z,83.28
2023-03-03T02:20:53.959Z,82.14
2023-03-03T02:23:33.029Z,82.73
2023-03-03T02:26:13.884Z,82.42
2023-03-03T02:28:44.023Z,82.67
2023-03-03T02:31:17.748Z,83.71
2023-03-03T02:33:50.178Z,83.01
2023-03-03T02:36:22.697Z,83.21
2023-03-03T02:39:13.379Z,83.21
2023-03-03T02:42:06.894Z,84.33
2023-03-03T02:44:44.089Z,83.75
2023-03-03T02:47:13.820Z,83.94
2023-03-03T02:49:43.696Z,82.93
2023-03-03T02:52:15.025Z,83.84
2023-03-03T02:54:46.838Z,83.35
2023-03-03T02:57:17.095Z,82.02
2023-03-03T02:59:46.953Z,82.49
2023-03-03T03:02:19.374Z,82.52
2023-03-03T03:04:49.530Z,82.52
2023-03-03T03:07:21.030Z,83.35
2023-03-03T03:09:51.201Z,82.88
2023-03-03T03:12:21.758Z,83.63
2023-03-03T03:14:53.325Z,83.21
2023-03-03T03:17:23.247Z,84.28
2023-03-03T03:19:53.520Z,83.20
2023-03-03T03:22:23.543Z,82.52
2023-03-03T03:24:53.198Z,84.11
2023-03-03T03:27:23.423Z,83.06
2023-03-03T03:29:53.681Z,83.06
2023-03-03T03:32:24.548Z,83.54
2023-03-03T03:34:54.596Z,83.54
2023-03-03T03:37:24.671Z,83.60
2023-03-03T03:39:54.308Z,83.17
2023-03-03T03:42:26.427Z,85.09
2023-03-03T03:44:56.551Z,84.40
2023-03-03T03:47:26.506Z,84.73
2023-03-03T03:49:57.145Z,85.25
2023-03-03T03:52:27.005Z,84.66
2023-03-03T03:54:56.944Z,84.20
2023-03-03T03:57:26.821Z,84.20
2023-03-03T03:59:56.679Z,83.09
2023-03-03T04:02:26.868Z,83.28
2023-03-03T04:04:56.852Z,83.42
2023-03-03T04:07:26.941Z,83.49
2023-03-03T04:09:57.064Z,83.47
2023-03-03T04:12:26.940Z,83.73
2023-03-03T04:14:58.870Z,83.35
2023-03-03T04:17:28.913Z,83.18
2023-03-03T04:19:59.093Z,83.29
2023-03-03T04:22:32.150Z,83.36
2023-03-03T04:25:05.089Z,84.02
2023-03-03T04:27:37.928Z,83.93
2023-03-03T04:30:10.172Z,83.70
2023-03-03T04:32:40.429Z,83.02
2023-03-03T04:35:12.422Z,82.99
2023-03-03T04:37:43.477Z,82.99
2023-03-03T04:40:14.947Z,83.08
2023-03-03T04:42:44.995Z,82.62
2023-03-03T04:45:15.300Z,82.50
2023-03-03T04:47:46.800Z,81.75
2023-03-03T04:50:16.961Z,82.44
2023-03-03T04:52:46.784Z,82.89
2023-03-03T04:55:17.027Z,82.89
2023-03-03T04:57:48.984Z,82.66
2023-03-03T05:00:19.873Z,82.69
2023-03-03T05:02:50.247Z,83.29
2023-03-03T05:05:20.104Z,83.08
2023-03-03T05:07:50.034Z,83.08
2023-03-03T05:10:22.736Z,83.76
2023-03-03T05:12:52.480Z,83.19
2023-03-03T05:15:22.368Z,83.16
2023-03-03T05:17:54.977Z,84.11
2023-03-03T05:20:25.865Z,83.25
2023-03-03T05:22:57.338Z,82.37
2023-03-03T05:25:27.206Z,82.45
2023-03-03T05:27:57.145Z,83.07
2023-03-03T05:30:27.026Z,82.35
2023-03-03T05:32:58.470Z,81.99
2023-03-03T05:35:31.609Z,81.50
2023-03-03T05:38:03.204Z,82.04
2023-03-03T05:40:33.437Z,82.08
2023-03-03T05:43:04.748Z,81.58
2023-03-03T05:45:35.302Z,81.11
2023-03-03T05:48:05.375Z,81.57
2023-03-03T05:50:35.052Z,81.87
2023-03-03T05:53:06.736Z,81.82
2023-03-03T05:55:38.156Z,81.45
2023-03-03T05:58:09.311Z,81.29
2023-03-03T06:00:39.492Z,81.36
2023-03-03T06:03:09.381Z,81.81
2023-03-03T06:05:39.311Z,81.83
2023-03-03T06:08:11.589Z,82.48
2023-03-03T06:10:41.773Z,82.35
2023-03-03T06:13:12.090Z,81.74
2023-03-03T06:15:42.007Z,82.02
2023-03-03T06:18:13.936Z,82.22
2023-03-03T06:20:43.897Z,82.14
2023-03-03T06:23:14.061Z,82.27
2023-03-03T06:25:44.561Z,81.60
2023-03-03T06:28:15.125Z,81.84
2023-03-03T06:30:44.928Z,81.48
2023-03-03T06:33:14.702Z,81.50
2023-03-03T06:35:44.606Z,81.60
2023-03-03T06:38:14.200Z,80.61
2023-03-03T06:40:44.021Z,81.22
2023-03-03T06:43:14.185Z,81.17
2023-03-03T06:45:46.059Z,82.11
2023-03-03T06:48:16.176Z,83.02
2023-03-03T06:50:46.288Z,83.02
2023-03-03T06:53:18.146Z,82.76
2023-03-03T06:55:48.049Z,82.08
2023-03-03T06:58:20.227Z,81.91
2023-03-03T07:01:00.498Z,82.65
2023-03-03T07:03:34.993Z,82.36
2023-03-03T07:06:07.950Z,82.33
2023-03-03T07:08:38.556Z,81.90
2023-03-03T07:11:11.574Z,82.33
2023-03-03T07:13:44.456Z,82.53
2023-03-03T07:16:17.477Z,81.99
2023-03-03T07:19:06.379Z,81.18
2023-03-03T07:21:38.898Z,82.38
2023-03-03T07:24:28.580Z,83.58
2023-03-03T07:27:03.661Z,83.04
2023-03-03T07:29:35.621Z,81.85
2023-03-03T07:32:22.356Z,80.70
2023-03-03T07:34:55.422Z,80.70
2023-03-03T07:37:38.455Z,81.35
2023-03-03T07:40:27.828Z,81.12
2023-03-03T07:42:57.647Z,80.14
2023-03-03T07:45:35.112Z,80.37
2023-03-03T07:48:09.267Z,80.13
2023-03-03T07:50:40.545Z,80.47
2023-03-03T07:53:13.423Z,80.55
2023-03-03T07:55:43.377Z,80.80
2023-03-03T07:58:17.183Z,80.81
2023-03-03T08:01:07.816Z,80.33
2023-03-03T08:03:38.015Z,80.92
2023-03-03T08:06:13.374Z,81.47
2023-03-03T08:08:44.572Z,81.78
2023-03-03T08:11:14.411Z,81.81
2023-03-03T08:13:46.527Z,81.51
2023-03-03T08:16:19.391Z,80.41
2023-03-03T08:18:51.384Z,81.27
2023-03-03T08:21:23.957Z,81.52
2023-03-03T08:23:54.383Z,80.49
2023-03-03T08:26:25.526Z,80.49
2023-03-03T08:28:56.013Z,80.69
2023-03-03T08:31:40.403Z,80.92
2023-03-03T08:33:59.031Z,79.95
2023-03-03T08:36:28.493Z,81.24
2023-03-03T08:38:58.427Z,80.39
2023-03-03T08:41:28.248Z,79.64
2023-03-03T08:43:58.092Z,80.49
2023-03-03T08:46:28.811Z,80.91
2023-03-03T08:48:58.908Z,80.78
2023-03-03T08:51:29.360Z,80.76
2023-03-03T08:53:59.334Z,80.43
2023-03-03T08:56:29.216Z,79.93
2023-03-03T08:59:02.445Z,79.39
2023-03-03T09:01:32.781Z,79.37
2023-03-03T09:04:02.764Z,79.34
2023-03-03T09:06:32.566Z,80.10
2023-03-03T09:09:02.878Z,80.07
2023-03-03T09:11:32.766Z,79.66
2023-03-03T09:14:14.363Z,78.05
2023-03-03T09:16:47.249Z,78.17
2023-03-03T09:19:22.803Z,78.81
2023-03-03T09:21:57.394Z,78.64
2023-03-03T09:24:29.176Z,78.10
2023-03-03T09:27:00.279Z,78.67
2023-03-03T09:29:32.654Z,78.58
2023-03-03T09:32:05.872Z,77.25
2023-03-03T09:34:43.387Z,77.12
2023-03-03T09:37:25.051Z,77.64
2023-03-03T09:39:57.538Z,77.18
2023-03-03T09:42:43.057Z,76.53
2023-03-03T09:45:44.983Z,76.57
2023-03-03T09:48:23.425Z,75.38
2023-03-03T09:51:05.235Z,75.87
2023-03-03T09:53:46.285Z,75.64
2023-03-03T09:56:19.189Z,75.90
2023-03-03T09:59:08.011Z,74.64
2023-03-03T10:01:52.301Z,73.53
2023-03-03T10:04:50.252Z,72.71
2023-03-03T10:07:38.017Z,73.05
2023-03-03T10:10:39.479Z,73.21
2023-03-03T10:13:45.644Z,73.22
2023-03-03T10:16:38.548Z,72.29
2023-03-03T10:19:14.338Z,71.57
2023-03-03T10:21:47.517Z,72.54
2023-03-03T10:24:26.315Z,72.63
2023-03-03T10:27:14.518Z,71.40
2023-03-03T10:29:59.392Z,71.32
2023-03-03T10:32:48.852Z,70.92
2023-03-03T10:35:33.186Z,70.92
2023-03-03T10:38:15.245Z,69.97
2023-03-03T10:40:50.482Z,69.97
2023-03-03T10:43:46.041Z,69.08
2023-03-03T10:46:25.242Z,69.65
2023-03-03T10:49:20.068Z,69.08
2023-03-03T10:52:07.563Z,67.78
2023-03-03T10:54:52.408Z,67.78
2023-03-03T10:57:44.500Z,67.92
2023-03-03T11:00:32.356Z,68.55
2023-03-03T11:03:29.268Z,65.26
2023-03-03T11:06:04.674Z,66.78
2023-03-03T11:08:37.330Z,66.89
2023-03-03T11:11:22.016Z,66.79
2023-03-03T11:13:57.754Z,66.95
2023-03-03T11:16:41.532Z,65.36
2023-03-03T11:19:36.912Z,64.05
2023-03-03T11:22:18.380Z,63.22
2023-03-03T11:25:05.859Z,62.91
2023-03-03T11:27:39.264Z,61.33
2023-03-03T11:30:16.786Z,61.39
2023-03-03T11:33:05.199Z,61.68
2023-03-03T11:35:49.885Z,60.55
2023-03-03T11:38:28.655Z,60.58
2023-03-03T11:41:16.301Z,61.65
2023-03-03T11:43:49.479Z,60.49
2023-03-03T11:46:34.073Z,60.06
2023-03-03T11:49:25.283Z,60.17
2023-03-03T11:52:09.869Z,59.11
2023-03-03T11:54:52.029Z,58.28
2023-03-03T11:57:33.886Z,59.07
2023-03-03T12:00:21.800Z,58.09
2023-03-03T12:03:10.985Z,59.29
2023-03-03T12:05:49.238Z,58.58
2023-03-03T12:08:41.344Z,57.26
2023-03-03T12:11:35.549Z,57.35
2023-03-03T12:14:25.167Z,58.30
2023-03-03T12:17:03.854Z,59.93
2023-03-03T12:19:44.948Z,57.52
2023-03-03T12:22:29.756Z,55.91
2023-03-03T12:25:22.189Z,57.68
2023-03-03T12:28:05.235Z,55.99
2023-03-03T12:30:38.021Z,57.17
2023-03-03T12:33:40.451Z,56.23
2023-03-03T12:36:38.322Z,57.59
2023-03-03T12:42:17.540Z,56.22
2023-03-03T12:45:11.190Z,54.40
2023-03-03T12:48:03.853Z,54.13
2023-03-03T12:50:36.483Z,54.92
2023-03-03T12:56:02.336Z,52.39
2023-03-03T12:58:55.773Z,52.97
2023-03-03T13:02:02.997Z,53.03
2023-03-03T13:04:53.291Z,52.54
2023-03-03T13:07:45.925Z,51.97
2023-03-03T13:10:23.866Z,52.13
2023-03-03T13:13:27.059Z,50.27
2023-03-03T13:16:03.073Z,51.39
2023-03-03T13:21:42.959Z,51.45
2023-03-03T13:24:20.869Z,51.75
2023-03-03T13:26:53.816Z,51.87
2023-03-03T13:29:32.346Z,51.87
2023-03-03T13:32:13.853Z,50.72
2023-03-03T13:34:46.722Z,49.74
2023-03-03T13:37:25.485Z,49.74
2023-03-03T13:39:58.051Z,50.25
2023-03-03T13:42:42.947Z,49.46
2023-03-03T13:45:24.935Z,50.03
2023-03-03T13:47:58.139Z,49.08
2023-03-03T13:50:51.604Z,48.12
2023-03-03T13:53:30.059Z,47.29
2023-03-03T13:56:02.895Z,47.93
2023-03-03T13:58:52.584Z,47.63
2023-03-03T14:01:28.869Z,48.36
2023-03-03T14:04:25.562Z,48.28
2023-03-03T14:06:56.019Z,46.90
2023-03-03T14:12:41.324Z,47.40
2023-03-03T14:15:31.728Z,46.99
2023-03-03T14:18:16.883Z,45.83
2023-03-03T14:20:54.380Z,45.83
2023-03-03T14:23:30.517Z,45.00
2023-03-03T14:26:11.568Z,45.00
2023-03-03T14:28:45.165Z,44.31
2023-03-03T14:31:23.540Z,43.39
2023-03-03T14:34:05.625Z,43.85
2023-03-03T14:36:38.499Z,43.85
2023-03-03T14:39:29.040Z,43.74
2023-03-03T14:41:59.397Z,44.85
2023-03-03T14:44:34.020Z,43.46
2023-03-03T14:47:29.042Z,43.46
2023-03-03T14:50:03.721Z,44.41
2023-03-03T14:52:35.838Z,44.72
2023-03-03T14:55:10.501Z,46.44
2023-03-03T14:57:47.021Z,46.44
2023-03-03T15:00:22.824Z,46.66
2023-03-03T15:03:06.585Z,46.55
2023-03-03T15:05:36.561Z,47.31
2023-03-03T15:08:09.665Z,47.61
2023-03-03T15:10:46.733Z,46.92
2023-03-03T15:13:29.208Z,47.42
2023-03-03T15:16:05.235Z,47.02
2023-03-03T15:18:35.564Z,47.42
2023-03-03T15:21:20.240Z,48.44
2023-03-03T15:23:59.297Z,49.14
2023-03-03T15:26:50.089Z,49.98
2023-03-03T15:29:35.248Z,50.02
2023-03-03T15:32:24.512Z,50.02
2023-03-03T15:34:59.320Z,49.39
2023-03-03T15:37:39.039Z,49.39
2023-03-03T15:40:19.329Z,50.05
2023-03-03T15:42:58.257Z,50.75
2023-03-03T15:45:48.233Z,50.75
2023-03-03T15:48:45.089Z,50.56
2023-03-03T15:51:15.375Z,50.80
2023-03-03T15:53:56.247Z,49.65
2023-03-03T15:56:49.754Z,50.51
2023-03-03T15:59:47.918Z,50.32
2023-03-03T16:02:26.673Z,50.50
2023-03-03T16:05:17.440Z,50.97
2023-03-03T16:08:08.262Z,51.28
2023-03-03T16:11:06.595Z,51.32
2023-03-03T16:16:57.939Z,51.90
2023-03-03T16:19:47.116Z,51.62
2023-03-03T16:22:33.508Z,52.78
2023-03-03T16:25:09.083Z,53.29
2023-03-03T16:28:02.558Z,55.54
2023-03-03T16:30:59.021Z,55.54
2023-03-03T16:33:41.614Z,54.65
2023-03-03T16:36:19.775Z,54.65
2023-03-03T16:39:12.786Z,55.02
2023-03-03T16:41:45.657Z,55.10
2023-03-03T16:44:20.320Z,55.52
2023-03-03T16:46:53.369Z,55.42
2023-03-03T16:49:31.377Z,55.92
2023-03-03T16:52:16.119Z,56.03
2023-03-03T16:54:50.898Z,56.04
2023-03-03T16:57:35.480Z,55.95
2023-03-03T17:03:06.052Z,55.79
2023-03-03T17:05:44.788Z,56.08
2023-03-03T17:08:30.102Z,56.88
2023-03-03T17:11:28.392Z,56.11
2023-03-03T17:14:01.544Z,56.72
2023-03-03T17:16:52.677Z,56.80
2023-03-03T17:19:41.643Z,56.71
2023-03-03T17:22:17.261Z,57.11
2023-03-03T17:25:08.342Z,58.28
2023-03-03T17:27:47.047Z,57.99
2023-03-03T17:30:37.814Z,57.91
2023-03-03T17:33:12.510Z,58.02
2023-03-03T17:35:59.920Z,57.96
2023-03-03T17:39:01.437Z,59.29
2023-03-03T17:41:37.123Z,59.59
2023-03-03T17:44:25.020Z,59.38
2023-03-03T17:47:02.982Z,58.91
2023-03-03T17:49:47.406Z,58.21
2023-03-03T17:52:34.741Z,58.58
2023-03-03T17:55:29.442Z,58.55
2023-03-03T17:58:08.899Z,58.68
2023-03-03T18:01:03.768Z,58.68
2023-03-03T18:03:39.439Z,58.69
2023-03-03T18:06:17.792Z,58.35
2023-03-03T18:09:14.451Z,58.98
2023-03-03T18:11:45.879Z,58.98
2023-03-03T18:14:21.491Z,58.58
2023-03-03T18:17:02.939Z,58.03
2023-03-03T18:20:01.378Z,58.65
2023-03-03T18:22:34.696Z,57.97
2023-03-03T18:25:24.307Z,57.97
2023-03-03T18:28:05.916Z,58.42
2023-03-03T18:30:55.246Z,58.04
2023-03-03T18:33:46.251Z,58.04
2023-03-03T18:36:31.958Z,58.53
2023-03-03T18:39:05.043Z,58.65
2023-03-03T18:41:37.539Z,59.27
2023-03-03T18:44:28.385Z,58.59
2023-03-03T18:46:58.928Z,58.62
2023-03-03T18:49:57.610Z,58.71
2023-03-03T18:52:30.634Z,58.36
2023-03-03T18:55:12.270Z,59.39
2023-03-03T18:57:47.116Z,58.69
2023-03-03T19:00:20.249Z,59.38
2023-03-03T19:02:55.945Z,58.99
2023-03-03T19:05:40.252Z,59.59
2023-03-03T19:08:19.345Z,59.33
2023-03-03T19:11:02.970Z,58.68
2023-03-03T19:13:38.226Z,58.71
2023-03-03T19:16:31.973Z,58.62
2023-03-03T19:19:04.627Z,58.10
2023-03-03T19:21:39.426Z,58.49
2023-03-03T19:24:28.527Z,58.71
2023-03-03T19:27:16.299Z,58.93
2023-03-03T19:29:49.257Z,58.93
2023-03-03T19:32:38.007Z,59.18
2023-03-03T19:35:37.817Z,59.18
2023-03-03T19:38:34.581Z,58.63
2023-03-03T19:41:25.013Z,59.07
2023-03-03T19:44:27.584Z,59.80
2023-03-03T19:47:06.400Z,59.61
2023-03-03T19:49:55.708Z,60.50
2023-03-03T19:52:43.435Z,60.50
2023-03-03T19:55:38.433Z,60.97
2023-03-03T19:58:30.984Z,61.26
2023-03-03T20:01:25.524Z,61.10
2023-03-03T20:04:25.193Z,61.61
2023-03-03T20:07:17.026Z,60.84
2023-03-03T20:09:58.839Z,61.10
2023-03-03T20:12:53.942Z,60.79
2023-03-03T20:15:46.767Z,61.38
2023-03-03T20:18:39.173Z,61.51
2023-03-03T20:21:20.922Z,62.17
2023-03-03T20:24:20.255Z,62.52
2023-03-03T20:27:16.720Z,62.52
2023-03-03T20:30:19.248Z,61.54
2023-03-03T20:32:57.914Z,61.99
2023-03-03T20:35:42.558Z,61.99
2023-03-03T20:38:33.418Z,61.60
2023-03-03T20:41:25.460Z,62.27
2023-03-03T20:44:12.255Z,61.88
2023-03-03T20:46:56.966Z,62.02
2023-03-03T20:49:41.691Z,61.73
2023-03-03T20:52:32.819Z,62.06
2023-03-03T20:55:14.304Z,61.98
2023-03-03T20:57:56.204Z,62.00
2023-03-03T21:00:31.245Z,61.51
2023-03-03T21:03:06.822Z,61.23
2023-03-03T21:05:38.228Z,61.60
2023-03-03T21:08:08.166Z,61.55
2023-03-03T21:10:42.211Z,62.03
2023-03-03T21:13:39.034Z,61.52
2023-03-03T21:16:17.068Z,61.74
2023-03-03T21:19:05.667Z,61.59
2023-03-03T21:21:37.993Z,61.65
2023-03-03T21:24:08.885Z,61.59
2023-03-03T21:26:58.898Z,61.48
2023-03-03T21:29:34.553Z,61.42
2023-03-03T21:32:11.628Z,61.34
2023-03-03T21:34:43.484Z,62.07
2023-03-03T21:37:15.931Z,62.14
2023-03-03T21:39:46.154Z,61.52
2023-03-03T21:42:20.485Z,61.33
2023-03-03T21:44:51.757Z,62.07
2023-03-03T21:47:24.326Z,62.01
2023-03-03T21:49:54.130Z,62.06
2023-03-03T21:52:23.947Z,61.74
2023-03-03T21:54:53.837Z,61.66
2023-03-03T21:57:25.141Z,62.16
2023-03-03T21:59:55.247Z,61.64
2023-03-03T22:02:25.005Z,61.57
2023-03-03T22:04:54.599Z,61.59
2023-03-03T22:07:24.681Z,61.70
2023-03-03T22:09:54.582Z,61.63
2023-03-03T22:12:24.344Z,61.86
2023-03-03T22:14:54.105Z,62.43
2023-03-03T22:17:25.474Z,62.97
2023-03-03T22:19:55.816Z,63.16
2023-03-03T22:22:25.575Z,63.01
2023-03-03T22:24:55.410Z,62.96
2023-03-03T22:27:25.158Z,63.03
2023-03-03T22:29:54.986Z,62.54
2023-03-03T22:32:24.815Z,62.65
2023-03-03T22:34:54.676Z,62.74
2023-03-03T22:37:24.431Z,62.99
2023-03-03T22:39:54.516Z,63.00
2023-03-03T22:42:25.047Z,63.28
2023-03-03T22:44:54.809Z,63.25
2023-03-03T22:47:24.651Z,63.26
2023-03-03T22:49:54.405Z,63.34
2023-03-03T22:52:24.213Z,62.94
2023-03-03T22:54:54.368Z,63.07
2023-03-03T22:57:24.486Z,63.07
2023-03-03T22:59:54.532Z,63.05
2023-03-03T23:02:24.328Z,63.08
2023-03-03T23:04:56.115Z,62.67
2023-03-03T23:07:26.455Z,63.00
2023-03-03T23:09:57.225Z,63.20
2023-03-03T23:12:27.243Z,63.14
2023-03-03T23:14:57.305Z,63.31
2023-03-03T23:17:27.448Z,63.69
2023-03-03T23:19:57.190Z,64.50
2023-03-03T23:22:27.209Z,63.94
2023-03-03T23:24:57.013Z,63.61
2023-03-03T23:27:26.636Z,63.36
2023-03-03T23:29:56.522Z,63.32
2023-03-03T23:32:26.576Z,63.40
2023-03-03T23:34:56.386Z,63.21
2023-03-03T23:37:26.214Z,63.31
2023-03-03T23:39:55.757Z,63.35
2023-03-03T23:42:29.830Z,63.56
2023-03-03T23:44:59.893Z,63.37
2023-03-03T23:47:29.708Z,63.32
2023-03-03T23:49:59.838Z,62.67
2023-03-03T23:52:29.740Z,62.67
2023-03-03T23:54:59.603Z,63.37
2023-03-03T23:57:29.560Z,63.05
2023-03-03T23:59:59.364Z,63.05
